sensor_id;sensor_type;location;lat;lon;timestamp;P1;durP1;ratioP1;P2;durP2;ratioP2
84644;SDS011;74874;48.072;11.688;2024-01-30T00:00:34;10.85;;;5.60;;
84644;SDS011;74874;48.072;11.688;2024-01-30T00:02:59;10.35;;;5.22;;
84644;SDS011;74874;48.072;11.688;2024-01-30T00:05:25;10.38;;;5.90;;
84644;SDS011;74874;48.072;11.688;2024-01-30T00:07:50;11.63;;;6.03;;
84644;SDS011;74874;48.072;11.688;2024-01-30T00:10:15;10.40;;;5.85;;
84644;SDS011;74874;48.072;11.688;2024-01-30T00:12:41;11.07;;;5.40;;
84644;SDS011;74874;48.072;11.688;2024-01-30T00:15:06;12.40;;;6.20;;
84644;SDS011;74874;48.072;11.688;2024-01-30T00:17:34;11.88;;;6.45;;
84644;SDS011;74874;48.072;11.688;2024-01-30T00:20:00;11.00;;;5.75;;
84644;SDS011;74874;48.072;11.688;2024-01-30T00:22:25;12.57;;;5.97;;
84644;SDS011;74874;48.072;11.688;2024-01-30T00:24:51;10.18;;;6.10;;
84644;SDS011;74874;48.072;11.688;2024-01-30T00:27:16;8.95;;;5.13;;
84644;SDS011;74874;48.072;11.688;2024-01-30T00:29:41;10.50;;;5.00;;
84644;SDS011;74874;48.072;11.688;2024-01-30T00:32:07;9.07;;;4.93;;
84644;SDS011;74874;48.072;11.688;2024-01-30T00:34:32;9.70;;;5.38;;
84644;SDS011;74874;48.072;11.688;2024-01-30T00:36:57;10.18;;;5.28;;
84644;SDS011;74874;48.072;11.688;2024-01-30T00:39:23;10.10;;;5.30;;
84644;SDS011;74874;48.072;11.688;2024-01-30T00:41:48;10.05;;;5.13;;
84644;SDS011;74874;48.072;11.688;2024-01-30T00:44:13;10.55;;;5.43;;
84644;SDS011;74874;48.072;11.688;2024-01-30T00:46:39;10.05;;;5.18;;
84644;SDS011;74874;48.072;11.688;2024-01-30T00:49:04;11.60;;;5.03;;
84644;SDS011;74874;48.072;11.688;2024-01-30T00:51:30;7.43;;;4.40;;
84644;SDS011;74874;48.072;11.688;2024-01-30T00:53:55;8.32;;;4.70;;
84644;SDS011;74874;48.072;11.688;2024-01-30T00:56:20;8.48;;;4.50;;
84644;SDS011;74874;48.072;11.688;2024-01-30T00:58:46;8.82;;;4.20;;
84644;SDS011;74874;48.072;11.688;2024-01-30T01:01:11;7.68;;;4.20;;
84644;SDS011;74874;48.072;11.688;2024-01-30T01:03:37;6.50;;;3.65;;
84644;SDS011;74874;48.072;11.688;2024-01-30T01:06:06;9.30;;;3.78;;
84644;SDS011;74874;48.072;11.688;2024-01-30T01:08:31;10.20;;;3.67;;
84644;SDS011;74874;48.072;11.688;2024-01-30T01:10:56;5.97;;;3.55;;
84644;SDS011;74874;48.072;11.688;2024-01-30T01:13:22;6.95;;;3.50;;
84644;SDS011;74874;48.072;11.688;2024-01-30T01:15:47;7.47;;;3.88;;
84644;SDS011;74874;48.072;11.688;2024-01-30T01:18:12;7.75;;;3.88;;
84644;SDS011;74874;48.072;11.688;2024-01-30T01:20:37;6.13;;;3.13;;
84644;SDS011;74874;48.072;11.688;2024-01-30T01:23:03;6.60;;;3.10;;
84644;SDS011;74874;48.072;11.688;2024-01-30T01:25:28;7.18;;;3.22;;
84644;SDS011;74874;48.072;11.688;2024-01-30T01:27:54;5.93;;;3.35;;
84644;SDS011;74874;48.072;11.688;2024-01-30T01:30:19;6.82;;;3.95;;
84644;SDS011;74874;48.072;11.688;2024-01-30T01:32:49;8.32;;;4.07;;
84644;SDS011;74874;48.072;11.688;2024-01-30T01:35:22;7.28;;;3.80;;
84644;SDS011;74874;48.072;11.688;2024-01-30T01:37:49;6.82;;;3.47;;
84644;SDS011;74874;48.072;11.688;2024-01-30T01:40:20;7.25;;;3.72;;
84644;SDS011;74874;48.072;11.688;2024-01-30T01:42:46;8.85;;;3.90;;
84644;SDS011;74874;48.072;11.688;2024-01-30T01:45:13;7.55;;;3.42;;
84644;SDS011;74874;48.072;11.688;2024-01-30T01:47:38;7.68;;;3.63;;
84644;SDS011;74874;48.072;11.688;2024-01-30T01:50:04;10.02;;;3.70;;
84644;SDS011;74874;48.072;11.688;2024-01-30T01:52:29;6.05;;;3.25;;
84644;SDS011;74874;48.072;11.688;2024-01-30T01:54:55;8.23;;;3.22;;
84644;SDS011;74874;48.072;11.688;2024-01-30T01:57:20;8.48;;;3.72;;
84644;SDS011;74874;48.072;11.688;2024-01-30T01:59:45;6.70;;;3.80;;
84644;SDS011;74874;48.072;11.688;2024-01-30T02:02:11;6.80;;;3.83;;
84644;SDS011;74874;48.072;11.688;2024-01-30T02:04:37;8.05;;;4.18;;
84644;SDS011;74874;48.072;11.688;2024-01-30T02:07:03;7.55;;;3.58;;
84644;SDS011;74874;48.072;11.688;2024-01-30T02:09:28;7.22;;;3.70;;
84644;SDS011;74874;48.072;11.688;2024-01-30T02:11:54;6.45;;;3.60;;
84644;SDS011;74874;48.072;11.688;2024-01-30T02:14:19;7.03;;;3.47;;
84644;SDS011;74874;48.072;11.688;2024-01-30T02:16:45;7.50;;;3.55;;
84644;SDS011;74874;48.072;11.688;2024-01-30T02:19:10;6.35;;;3.15;;
84644;SDS011;74874;48.072;11.688;2024-01-30T02:21:36;8.68;;;3.53;;
84644;SDS011;74874;48.072;11.688;2024-01-30T02:24:01;7.80;;;3.58;;
84644;SDS011;74874;48.072;11.688;2024-01-30T02:26:28;5.38;;;2.80;;
84644;SDS011;74874;48.072;11.688;2024-01-30T02:28:53;8.43;;;3.63;;
84644;SDS011;74874;48.072;11.688;2024-01-30T02:31:18;6.85;;;3.28;;
84644;SDS011;74874;48.072;11.688;2024-01-30T02:33:44;4.70;;;2.80;;
84644;SDS011;74874;48.072;11.688;2024-01-30T02:36:09;6.93;;;3.03;;
84644;SDS011;74874;48.072;11.688;2024-01-30T02:38:34;6.85;;;4.07;;
84644;SDS011;74874;48.072;11.688;2024-01-30T02:41:00;5.32;;;2.90;;
84644;SDS011;74874;48.072;11.688;2024-01-30T02:43:25;6.22;;;3.45;;
84644;SDS011;74874;48.072;11.688;2024-01-30T02:45:50;13.05;;;4.20;;
84644;SDS011;74874;48.072;11.688;2024-01-30T02:48:16;6.25;;;3.15;;
84644;SDS011;74874;48.072;11.688;2024-01-30T02:50:41;8.02;;;4.20;;
84644;SDS011;74874;48.072;11.688;2024-01-30T02:53:07;7.30;;;3.20;;
84644;SDS011;74874;48.072;11.688;2024-01-30T02:55:32;7.18;;;3.25;;
84644;SDS011;74874;48.072;11.688;2024-01-30T02:57:58;6.70;;;3.55;;
84644;SDS011;74874;48.072;11.688;2024-01-30T03:00:23;7.60;;;3.25;;
84644;SDS011;74874;48.072;11.688;2024-01-30T03:02:48;7.18;;;2.85;;
84644;SDS011;74874;48.072;11.688;2024-01-30T03:05:14;5.55;;;2.60;;
84644;SDS011;74874;48.072;11.688;2024-01-30T03:07:39;6.70;;;3.00;;
84644;SDS011;74874;48.072;11.688;2024-01-30T03:13:39;6.50;;;3.10;;
84644;SDS011;74874;48.072;11.688;2024-01-30T03:16:05;6.05;;;2.70;;
84644;SDS011;74874;48.072;11.688;2024-01-30T03:18:31;6.65;;;2.65;;
84644;SDS011;74874;48.072;11.688;2024-01-30T03:20:56;6.13;;;3.00;;
84644;SDS011;74874;48.072;11.688;2024-01-30T03:23:21;5.43;;;2.67;;
84644;SDS011;74874;48.072;11.688;2024-01-30T03:25:47;5.95;;;2.50;;
84644;SDS011;74874;48.072;11.688;2024-01-30T03:28:12;6.18;;;2.97;;
84644;SDS011;74874;48.072;11.688;2024-01-30T03:30:37;5.70;;;2.65;;
84644;SDS011;74874;48.072;11.688;2024-01-30T03:33:03;5.85;;;2.80;;
84644;SDS011;74874;48.072;11.688;2024-01-30T03:35:28;6.13;;;2.20;;
84644;SDS011;74874;48.072;11.688;2024-01-30T03:37:54;4.88;;;2.30;;
84644;SDS011;74874;48.072;11.688;2024-01-30T03:40:19;6.38;;;3.15;;
84644;SDS011;74874;48.072;11.688;2024-01-30T03:42:44;5.50;;;2.22;;
84644;SDS011;74874;48.072;11.688;2024-01-30T03:45:10;6.03;;;2.80;;
84644;SDS011;74874;48.072;11.688;2024-01-30T03:47:35;6.15;;;2.75;;
84644;SDS011;74874;48.072;11.688;2024-01-30T03:50:01;4.70;;;2.17;;
84644;SDS011;74874;48.072;11.688;2024-01-30T03:52:26;5.00;;;2.17;;
84644;SDS011;74874;48.072;11.688;2024-01-30T03:54:51;6.10;;;2.50;;
84644;SDS011;74874;48.072;11.688;2024-01-30T03:57:17;5.78;;;2.60;;
84644;SDS011;74874;48.072;11.688;2024-01-30T03:59:42;4.60;;;2.28;;
84644;SDS011;74874;48.072;11.688;2024-01-30T04:02:08;5.55;;;2.40;;
84644;SDS011;74874;48.072;11.688;2024-01-30T04:04:33;6.25;;;2.65;;
84644;SDS011;74874;48.072;11.688;2024-01-30T04:06:58;5.18;;;2.42;;
84644;SDS011;74874;48.072;11.688;2024-01-30T04:09:24;7.45;;;2.35;;
84644;SDS011;74874;48.072;11.688;2024-01-30T04:11:51;4.95;;;2.38;;
84644;SDS011;74874;48.072;11.688;2024-01-30T04:14:16;3.88;;;1.95;;
84644;SDS011;74874;48.072;11.688;2024-01-30T04:16:42;5.50;;;2.28;;
84644;SDS011;74874;48.072;11.688;2024-01-30T04:19:07;4.93;;;2.47;;
84644;SDS011;74874;48.072;11.688;2024-01-30T04:21:32;4.72;;;2.40;;
84644;SDS011;74874;48.072;11.688;2024-01-30T04:23:58;4.50;;;2.72;;
84644;SDS011;74874;48.072;11.688;2024-01-30T04:26:23;3.70;;;2.00;;
84644;SDS011;74874;48.072;11.688;2024-01-30T04:28:48;4.15;;;2.05;;
84644;SDS011;74874;48.072;11.688;2024-01-30T04:31:14;5.47;;;2.45;;
84644;SDS011;74874;48.072;11.688;2024-01-30T04:33:39;3.85;;;2.20;;
84644;SDS011;74874;48.072;11.688;2024-01-30T04:36:07;5.10;;;2.22;;
84644;SDS011;74874;48.072;11.688;2024-01-30T04:38:35;4.97;;;2.22;;
84644;SDS011;74874;48.072;11.688;2024-01-30T04:41:00;6.55;;;2.47;;
84644;SDS011;74874;48.072;11.688;2024-01-30T04:43:25;4.38;;;2.15;;
84644;SDS011;74874;48.072;11.688;2024-01-30T04:45:51;4.18;;;2.15;;
84644;SDS011;74874;48.072;11.688;2024-01-30T04:48:16;5.50;;;1.90;;
84644;SDS011;74874;48.072;11.688;2024-01-30T04:50:42;5.82;;;1.95;;
84644;SDS011;74874;48.072;11.688;2024-01-30T04:53:07;5.15;;;2.42;;
84644;SDS011;74874;48.072;11.688;2024-01-30T04:55:33;5.18;;;1.90;;
84644;SDS011;74874;48.072;11.688;2024-01-30T04:57:58;4.13;;;1.70;;
84644;SDS011;74874;48.072;11.688;2024-01-30T05:00:23;5.30;;;2.05;;
84644;SDS011;74874;48.072;11.688;2024-01-30T05:02:48;4.85;;;2.13;;
84644;SDS011;74874;48.072;11.688;2024-01-30T05:05:14;4.38;;;2.08;;
84644;SDS011;74874;48.072;11.688;2024-01-30T05:07:40;4.18;;;1.95;;
84644;SDS011;74874;48.072;11.688;2024-01-30T05:10:06;5.38;;;2.10;;
84644;SDS011;74874;48.072;11.688;2024-01-30T05:12:31;3.60;;;1.77;;
84644;SDS011;74874;48.072;11.688;2024-01-30T05:14:57;3.97;;;2.10;;
84644;SDS011;74874;48.072;11.688;2024-01-30T05:17:22;4.70;;;2.33;;
84644;SDS011;74874;48.072;11.688;2024-01-30T05:19:47;4.70;;;2.17;;
84644;SDS011;74874;48.072;11.688;2024-01-30T05:22:13;5.05;;;2.20;;
84644;SDS011;74874;48.072;11.688;2024-01-30T05:24:43;3.70;;;1.88;;
84644;SDS011;74874;48.072;11.688;2024-01-30T05:27:08;4.93;;;1.92;;
84644;SDS011;74874;48.072;11.688;2024-01-30T05:29:33;4.07;;;1.92;;
84644;SDS011;74874;48.072;11.688;2024-01-30T05:31:59;4.60;;;1.92;;
84644;SDS011;74874;48.072;11.688;2024-01-30T05:34:24;4.93;;;2.03;;
84644;SDS011;74874;48.072;11.688;2024-01-30T05:36:49;4.85;;;2.10;;
84644;SDS011;74874;48.072;11.688;2024-01-30T05:39:15;7.20;;;2.50;;
84644;SDS011;74874;48.072;11.688;2024-01-30T05:41:40;3.97;;;1.60;;
84644;SDS011;74874;48.072;11.688;2024-01-30T05:44:08;7.40;;;2.22;;
84644;SDS011;74874;48.072;11.688;2024-01-30T05:46:34;4.45;;;1.85;;
84644;SDS011;74874;48.072;11.688;2024-01-30T05:49:00;4.13;;;1.83;;
84644;SDS011;74874;48.072;11.688;2024-01-30T05:51:25;6.63;;;2.92;;
84644;SDS011;74874;48.072;11.688;2024-01-30T05:53:51;5.47;;;2.55;;
84644;SDS011;74874;48.072;11.688;2024-01-30T05:56:16;5.47;;;2.63;;
84644;SDS011;74874;48.072;11.688;2024-01-30T05:58:41;6.28;;;2.28;;
84644;SDS011;74874;48.072;11.688;2024-01-30T06:01:08;4.95;;;2.28;;
84644;SDS011;74874;48.072;11.688;2024-01-30T06:03:33;7.20;;;2.63;;
84644;SDS011;74874;48.072;11.688;2024-01-30T06:05:59;5.40;;;2.58;;
84644;SDS011;74874;48.072;11.688;2024-01-30T06:08:24;7.47;;;2.70;;
84644;SDS011;74874;48.072;11.688;2024-01-30T06:10:50;8.82;;;3.50;;
84644;SDS011;74874;48.072;11.688;2024-01-30T06:13:15;8.52;;;3.85;;
84644;SDS011;74874;48.072;11.688;2024-01-30T06:15:40;7.88;;;3.25;;
84644;SDS011;74874;48.072;11.688;2024-01-30T06:18:06;9.07;;;4.13;;
84644;SDS011;74874;48.072;11.688;2024-01-30T06:20:31;8.32;;;3.15;;
84644;SDS011;74874;48.072;11.688;2024-01-30T06:22:56;7.20;;;3.08;;
84644;SDS011;74874;48.072;11.688;2024-01-30T06:25:21;5.03;;;2.70;;
84644;SDS011;74874;48.072;11.688;2024-01-30T06:27:47;5.60;;;2.60;;
84644;SDS011;74874;48.072;11.688;2024-01-30T06:30:12;6.82;;;3.08;;
84644;SDS011;74874;48.072;11.688;2024-01-30T06:32:38;6.65;;;3.63;;
84644;SDS011;74874;48.072;11.688;2024-01-30T06:35:03;8.75;;;3.33;;
84644;SDS011;74874;48.072;11.688;2024-01-30T06:37:29;6.85;;;3.05;;
84644;SDS011;74874;48.072;11.688;2024-01-30T06:39:54;8.07;;;3.72;;
84644;SDS011;74874;48.072;11.688;2024-01-30T06:42:20;7.30;;;3.65;;
84644;SDS011;74874;48.072;11.688;2024-01-30T06:44:45;8.25;;;3.92;;
84644;SDS011;74874;48.072;11.688;2024-01-30T06:47:10;8.88;;;4.40;;
84644;SDS011;74874;48.072;11.688;2024-01-30T06:49:36;10.85;;;4.90;;
84644;SDS011;74874;48.072;11.688;2024-01-30T06:52:07;9.40;;;4.53;;
84644;SDS011;74874;48.072;11.688;2024-01-30T06:54:32;8.07;;;3.63;;
84644;SDS011;74874;48.072;11.688;2024-01-30T06:56:58;6.63;;;3.20;;
84644;SDS011;74874;48.072;11.688;2024-01-30T06:59:24;7.47;;;3.33;;
84644;SDS011;74874;48.072;11.688;2024-01-30T07:01:49;8.40;;;3.70;;
84644;SDS011;74874;48.072;11.688;2024-01-30T07:04:14;9.98;;;4.10;;
84644;SDS011;74874;48.072;11.688;2024-01-30T07:06:41;8.63;;;3.90;;
84644;SDS011;74874;48.072;11.688;2024-01-30T07:09:06;8.20;;;4.40;;
84644;SDS011;74874;48.072;11.688;2024-01-30T07:11:31;9.18;;;4.07;;
84644;SDS011;74874;48.072;11.688;2024-01-30T07:13:57;7.93;;;4.38;;
84644;SDS011;74874;48.072;11.688;2024-01-30T07:16:22;7.88;;;4.13;;
84644;SDS011;74874;48.072;11.688;2024-01-30T07:18:48;10.00;;;4.38;;
84644;SDS011;74874;48.072;11.688;2024-01-30T07:21:14;8.27;;;3.90;;
84644;SDS011;74874;48.072;11.688;2024-01-30T07:23:40;8.05;;;4.10;;
84644;SDS011;74874;48.072;11.688;2024-01-30T07:26:06;8.73;;;4.20;;
84644;SDS011;74874;48.072;11.688;2024-01-30T07:28:32;8.68;;;3.72;;
84644;SDS011;74874;48.072;11.688;2024-01-30T07:30:58;8.75;;;3.53;;
84644;SDS011;74874;48.072;11.688;2024-01-30T07:33:23;6.32;;;2.70;;
84644;SDS011;74874;48.072;11.688;2024-01-30T07:35:49;6.43;;;3.22;;
84644;SDS011;74874;48.072;11.688;2024-01-30T07:38:14;11.95;;;3.45;;
84644;SDS011;74874;48.072;11.688;2024-01-30T07:40:39;6.85;;;3.83;;
84644;SDS011;74874;48.072;11.688;2024-01-30T07:43:06;6.70;;;2.65;;
84644;SDS011;74874;48.072;11.688;2024-01-30T07:45:31;6.70;;;3.00;;
84644;SDS011;74874;48.072;11.688;2024-01-30T07:47:58;13.23;;;3.00;;
84644;SDS011;74874;48.072;11.688;2024-01-30T07:50:24;12.55;;;2.80;;
84644;SDS011;74874;48.072;11.688;2024-01-30T07:52:50;13.02;;;4.13;;
84644;SDS011;74874;48.072;11.688;2024-01-30T07:55:19;10.80;;;3.72;;
84644;SDS011;74874;48.072;11.688;2024-01-30T07:57:45;14.07;;;4.22;;
84644;SDS011;74874;48.072;11.688;2024-01-30T08:00:11;10.27;;;3.17;;
84644;SDS011;74874;48.072;11.688;2024-01-30T08:02:37;6.28;;;2.75;;
84644;SDS011;74874;48.072;11.688;2024-01-30T08:05:02;9.05;;;2.72;;
84644;SDS011;74874;48.072;11.688;2024-01-30T08:07:27;5.15;;;2.70;;
84644;SDS011;74874;48.072;11.688;2024-01-30T08:09:54;7.18;;;2.97;;
84644;SDS011;74874;48.072;11.688;2024-01-30T08:12:20;10.35;;;2.83;;
84644;SDS011;74874;48.072;11.688;2024-01-30T08:14:45;13.45;;;3.05;;
84644;SDS011;74874;48.072;11.688;2024-01-30T08:29:54;10.63;;;3.30;;
84644;SDS011;74874;48.072;11.688;2024-01-30T08:32:20;10.07;;;3.00;;
84644;SDS011;74874;48.072;11.688;2024-01-30T08:34:45;16.02;;;3.22;;
84644;SDS011;74874;48.072;11.688;2024-01-30T08:37:10;8.48;;;2.65;;
84644;SDS011;74874;48.072;11.688;2024-01-30T08:39:36;19.85;;;2.85;;
84644;SDS011;74874;48.072;11.688;2024-01-30T08:42:02;7.45;;;2.65;;
84644;SDS011;74874;48.072;11.688;2024-01-30T08:44:27;9.05;;;2.47;;
84644;SDS011;74874;48.072;11.688;2024-01-30T08:46:53;8.68;;;2.45;;
84644;SDS011;74874;48.072;11.688;2024-01-30T08:49:19;5.97;;;2.35;;
84644;SDS011;74874;48.072;11.688;2024-01-30T08:51:45;8.55;;;2.67;;
84644;SDS011;74874;48.072;11.688;2024-01-30T08:54:10;6.15;;;2.42;;
84644;SDS011;74874;48.072;11.688;2024-01-30T08:56:36;7.60;;;2.28;;
84644;SDS011;74874;48.072;11.688;2024-01-30T08:59:01;9.48;;;1.90;;
84644;SDS011;74874;48.072;11.688;2024-01-30T09:01:26;6.72;;;2.60;;
84644;SDS011;74874;48.072;11.688;2024-01-30T09:03:52;7.72;;;1.80;;
84644;SDS011;74874;48.072;11.688;2024-01-30T09:06:18;6.43;;;1.58;;
84644;SDS011;74874;48.072;11.688;2024-01-30T09:08:43;9.48;;;1.75;;
84644;SDS011;74874;48.072;11.688;2024-01-30T09:11:09;4.32;;;1.92;;
84644;SDS011;74874;48.072;11.688;2024-01-30T09:13:38;9.07;;;2.30;;
84644;SDS011;74874;48.072;11.688;2024-01-30T09:16:03;12.55;;;3.83;;
84644;SDS011;74874;48.072;11.688;2024-01-30T09:18:29;8.00;;;3.40;;
84644;SDS011;74874;48.072;11.688;2024-01-30T09:20:54;4.43;;;2.03;;
84644;SDS011;74874;48.072;11.688;2024-01-30T09:23:20;7.47;;;2.22;;
84644;SDS011;74874;48.072;11.688;2024-01-30T09:25:45;3.80;;;1.67;;
84644;SDS011;74874;48.072;11.688;2024-01-30T09:28:10;4.35;;;1.60;;
84644;SDS011;74874;48.072;11.688;2024-01-30T09:30:36;6.10;;;2.00;;
84644;SDS011;74874;48.072;11.688;2024-01-30T09:33:01;5.57;;;2.78;;
84644;SDS011;74874;48.072;11.688;2024-01-30T09:35:27;5.22;;;1.92;;
84644;SDS011;74874;48.072;11.688;2024-01-30T09:37:52;9.63;;;2.38;;
84644;SDS011;74874;48.072;11.688;2024-01-30T09:40:18;8.10;;;2.25;;
84644;SDS011;74874;48.072;11.688;2024-01-30T09:42:46;3.70;;;1.70;;
84644;SDS011;74874;48.072;11.688;2024-01-30T09:45:13;7.50;;;2.13;;
84644;SDS011;74874;48.072;11.688;2024-01-30T09:47:42;4.78;;;1.83;;
84644;SDS011;74874;48.072;11.688;2024-01-30T09:50:09;6.55;;;1.80;;
84644;SDS011;74874;48.072;11.688;2024-01-30T09:52:35;4.70;;;1.38;;
84644;SDS011;74874;48.072;11.688;2024-01-30T09:55:01;7.63;;;1.77;;
84644;SDS011;74874;48.072;11.688;2024-01-30T09:57:26;4.85;;;1.70;;
84644;SDS011;74874;48.072;11.688;2024-01-30T09:59:52;5.53;;;1.88;;
84644;SDS011;74874;48.072;11.688;2024-01-30T10:02:19;4.07;;;1.50;;
84644;SDS011;74874;48.072;11.688;2024-01-30T10:04:44;13.10;;;2.50;;
84644;SDS011;74874;48.072;11.688;2024-01-30T10:07:12;5.75;;;2.13;;
84644;SDS011;74874;48.072;11.688;2024-01-30T10:09:38;5.97;;;1.85;;
84644;SDS011;74874;48.072;11.688;2024-01-30T10:12:03;5.45;;;2.00;;
84644;SDS011;74874;48.072;11.688;2024-01-30T10:14:29;6.80;;;1.65;;
84644;SDS011;74874;48.072;11.688;2024-01-30T10:16:55;6.75;;;2.63;;
84644;SDS011;74874;48.072;11.688;2024-01-30T10:19:20;7.13;;;3.10;;
84644;SDS011;74874;48.072;11.688;2024-01-30T10:21:46;8.52;;;3.50;;
84644;SDS011;74874;48.072;11.688;2024-01-30T10:24:11;6.93;;;2.90;;
84644;SDS011;74874;48.072;11.688;2024-01-30T10:26:38;6.90;;;2.78;;
84644;SDS011;74874;48.072;11.688;2024-01-30T10:29:04;5.72;;;2.35;;
84644;SDS011;74874;48.072;11.688;2024-01-30T10:31:30;5.07;;;1.83;;
84644;SDS011;74874;48.072;11.688;2024-01-30T10:33:56;4.65;;;1.80;;
84644;SDS011;74874;48.072;11.688;2024-01-30T10:36:22;7.57;;;1.95;;
84644;SDS011;74874;48.072;11.688;2024-01-30T10:38:53;5.00;;;1.85;;
84644;SDS011;74874;48.072;11.688;2024-01-30T10:41:22;3.35;;;1.50;;
84644;SDS011;74874;48.072;11.688;2024-01-30T10:43:52;4.25;;;1.80;;
84644;SDS011;74874;48.072;11.688;2024-01-30T10:46:33;4.03;;;1.63;;
84644;SDS011;74874;48.072;11.688;2024-01-30T10:48:59;4.53;;;1.88;;
84644;SDS011;74874;48.072;11.688;2024-01-30T10:51:28;3.15;;;1.33;;
84644;SDS011;74874;48.072;11.688;2024-01-30T10:53:55;3.38;;;1.38;;
84644;SDS011;74874;48.072;11.688;2024-01-30T10:56:21;5.50;;;1.30;;
84644;SDS011;74874;48.072;11.688;2024-01-30T10:58:47;3.55;;;1.08;;
84644;SDS011;74874;48.072;11.688;2024-01-30T11:01:22;2.08;;;1.00;;
84644;SDS011;74874;48.072;11.688;2024-01-30T11:03:51;2.47;;;1.08;;
84644;SDS011;74874;48.072;11.688;2024-01-30T11:06:16;2.45;;;0.80;;
84644;SDS011;74874;48.072;11.688;2024-01-30T11:08:43;3.42;;;1.10;;
84644;SDS011;74874;48.072;11.688;2024-01-30T11:11:09;2.80;;;1.05;;
84644;SDS011;74874;48.072;11.688;2024-01-30T11:13:35;3.80;;;1.10;;
84644;SDS011;74874;48.072;11.688;2024-01-30T11:16:04;3.10;;;0.90;;
84644;SDS011;74874;48.072;11.688;2024-01-30T11:18:30;4.78;;;0.80;;
84644;SDS011;74874;48.072;11.688;2024-01-30T11:20:56;1.88;;;0.73;;
84644;SDS011;74874;48.072;11.688;2024-01-30T11:23:26;4.00;;;1.10;;
84644;SDS011;74874;48.072;11.688;2024-01-30T11:25:52;2.30;;;0.80;;
84644;SDS011;74874;48.072;11.688;2024-01-30T11:28:17;2.05;;;0.80;;
84644;SDS011;74874;48.072;11.688;2024-01-30T11:30:43;2.60;;;0.90;;
84644;SDS011;74874;48.072;11.688;2024-01-30T11:33:10;7.07;;;0.98;;
84644;SDS011;74874;48.072;11.688;2024-01-30T11:35:43;3.90;;;1.00;;
84644;SDS011;74874;48.072;11.688;2024-01-30T11:38:18;3.40;;;1.48;;
84644;SDS011;74874;48.072;11.688;2024-01-30T11:40:44;2.53;;;1.10;;
84644;SDS011;74874;48.072;11.688;2024-01-30T11:43:09;4.20;;;1.02;;
84644;SDS011;74874;48.072;11.688;2024-01-30T11:45:35;2.08;;;1.10;;
84644;SDS011;74874;48.072;11.688;2024-01-30T11:48:01;4.47;;;1.20;;
84644;SDS011;74874;48.072;11.688;2024-01-30T11:50:32;3.78;;;1.00;;
84644;SDS011;74874;48.072;11.688;2024-01-30T11:52:58;3.97;;;1.15;;
84644;SDS011;74874;48.072;11.688;2024-01-30T11:55:24;2.75;;;1.10;;
84644;SDS011;74874;48.072;11.688;2024-01-30T11:57:50;3.28;;;1.13;;
84644;SDS011;74874;48.072;11.688;2024-01-30T12:00:16;2.58;;;1.02;;
84644;SDS011;74874;48.072;11.688;2024-01-30T12:02:43;5.22;;;1.17;;
84644;SDS011;74874;48.072;11.688;2024-01-30T12:05:09;3.60;;;1.05;;
84644;SDS011;74874;48.072;11.688;2024-01-30T12:07:34;5.18;;;1.13;;
84644;SDS011;74874;48.072;11.688;2024-01-30T12:10:00;4.85;;;1.35;;
84644;SDS011;74874;48.072;11.688;2024-01-30T12:12:26;5.75;;;1.58;;
84644;SDS011;74874;48.072;11.688;2024-01-30T12:14:52;2.75;;;1.10;;
84644;SDS011;74874;48.072;11.688;2024-01-30T12:17:50;3.50;;;1.08;;
84644;SDS011;74874;48.072;11.688;2024-01-30T12:22:39;8.05;;;1.85;;
84644;SDS011;74874;48.072;11.688;2024-01-30T12:25:08;3.92;;;1.20;;
84644;SDS011;74874;48.072;11.688;2024-01-30T12:27:44;4.78;;;1.38;;
84644;SDS011;74874;48.072;11.688;2024-01-30T12:30:12;3.45;;;1.17;;
84644;SDS011;74874;48.072;11.688;2024-01-30T12:32:41;8.32;;;1.60;;
84644;SDS011;74874;48.072;11.688;2024-01-30T12:35:10;6.60;;;1.73;;
84644;SDS011;74874;48.072;11.688;2024-01-30T12:37:35;6.18;;;2.33;;
84644;SDS011;74874;48.072;11.688;2024-01-30T12:40:01;5.38;;;1.40;;
84644;SDS011;74874;48.072;11.688;2024-01-30T12:42:27;11.95;;;4.88;;
84644;SDS011;74874;48.072;11.688;2024-01-30T12:44:52;6.68;;;3.58;;
84644;SDS011;74874;48.072;11.688;2024-01-30T12:47:18;3.03;;;1.50;;
84644;SDS011;74874;48.072;11.688;2024-01-30T12:49:43;6.20;;;1.50;;
84644;SDS011;74874;48.072;11.688;2024-01-30T12:52:10;5.35;;;1.27;;
84644;SDS011;74874;48.072;11.688;2024-01-30T12:54:36;3.63;;;1.20;;
84644;SDS011;74874;48.072;11.688;2024-01-30T12:57:02;3.05;;;1.20;;
84644;SDS011;74874;48.072;11.688;2024-01-30T12:59:27;4.82;;;1.42;;
84644;SDS011;74874;48.072;11.688;2024-01-30T13:01:53;2.97;;;1.27;;
84644;SDS011;74874;48.072;11.688;2024-01-30T13:04:18;3.90;;;1.20;;
84644;SDS011;74874;48.072;11.688;2024-01-30T13:06:46;3.75;;;1.60;;
84644;SDS011;74874;48.072;11.688;2024-01-30T13:09:11;3.22;;;1.45;;
84644;SDS011;74874;48.072;11.688;2024-01-30T13:11:37;6.38;;;1.33;;
84644;SDS011;74874;48.072;11.688;2024-01-30T13:14:03;11.35;;;1.70;;
84644;SDS011;74874;48.072;11.688;2024-01-30T13:16:28;5.90;;;1.55;;
84644;SDS011;74874;48.072;11.688;2024-01-30T13:18:53;4.50;;;1.30;;
84644;SDS011;74874;48.072;11.688;2024-01-30T13:21:20;5.93;;;1.70;;
84644;SDS011;74874;48.072;11.688;2024-01-30T13:23:46;4.25;;;1.60;;
84644;SDS011;74874;48.072;11.688;2024-01-30T13:26:11;7.60;;;1.58;;
84644;SDS011;74874;48.072;11.688;2024-01-30T13:28:37;5.70;;;2.25;;
84644;SDS011;74874;48.072;11.688;2024-01-30T13:31:02;5.53;;;2.00;;
84644;SDS011;74874;48.072;11.688;2024-01-30T13:33:28;6.40;;;1.65;;
84644;SDS011;74874;48.072;11.688;2024-01-30T13:35:53;4.80;;;1.55;;
84644;SDS011;74874;48.072;11.688;2024-01-30T13:38:18;5.93;;;1.75;;
84644;SDS011;74874;48.072;11.688;2024-01-30T13:40:44;3.63;;;1.27;;
84644;SDS011;74874;48.072;11.688;2024-01-30T13:43:09;5.63;;;1.50;;
84644;SDS011;74874;48.072;11.688;2024-01-30T13:45:34;6.72;;;1.85;;
84644;SDS011;74874;48.072;11.688;2024-01-30T13:48:00;5.80;;;1.33;;
84644;SDS011;74874;48.072;11.688;2024-01-30T13:50:26;5.72;;;1.65;;
84644;SDS011;74874;48.072;11.688;2024-01-30T13:52:51;4.53;;;1.70;;
84644;SDS011;74874;48.072;11.688;2024-01-30T13:55:16;4.65;;;1.30;;
84644;SDS011;74874;48.072;11.688;2024-01-30T13:57:42;4.40;;;1.20;;
84644;SDS011;74874;48.072;11.688;2024-01-30T14:00:07;4.03;;;1.65;;
84644;SDS011;74874;48.072;11.688;2024-01-30T14:02:34;3.80;;;1.48;;
84644;SDS011;74874;48.072;11.688;2024-01-30T14:04:59;11.95;;;1.70;;
84644;SDS011;74874;48.072;11.688;2024-01-30T14:07:24;4.70;;;1.20;;
84644;SDS011;74874;48.072;11.688;2024-01-30T14:09:50;3.75;;;1.42;;
84644;SDS011;74874;48.072;11.688;2024-01-30T14:12:15;6.05;;;1.88;;
84644;SDS011;74874;48.072;11.688;2024-01-30T14:14:41;7.72;;;1.67;;
84644;SDS011;74874;48.072;11.688;2024-01-30T14:17:06;6.63;;;1.65;;
84644;SDS011;74874;48.072;11.688;2024-01-30T14:19:32;3.65;;;1.60;;
84644;SDS011;74874;48.072;11.688;2024-01-30T14:21:58;4.15;;;2.15;;
84644;SDS011;74874;48.072;11.688;2024-01-30T14:24:23;12.30;;;1.88;;
84644;SDS011;74874;48.072;11.688;2024-01-30T14:26:49;4.10;;;1.67;;
84644;SDS011;74874;48.072;11.688;2024-01-30T14:29:14;9.25;;;1.48;;
84644;SDS011;74874;48.072;11.688;2024-01-30T14:31:39;6.43;;;1.73;;
84644;SDS011;74874;48.072;11.688;2024-01-30T14:34:05;5.07;;;1.60;;
84644;SDS011;74874;48.072;11.688;2024-01-30T14:36:31;5.35;;;1.48;;
84644;SDS011;74874;48.072;11.688;2024-01-30T14:38:57;5.22;;;1.75;;
84644;SDS011;74874;48.072;11.688;2024-01-30T14:41:22;6.60;;;1.60;;
84644;SDS011;74874;48.072;11.688;2024-01-30T14:43:48;7.70;;;1.90;;